Time;durP1;ratioP1;P1;durP2;ratioP2;P2;SDS_P1;SDS_P2;PMS_P1;PMS_P2;Temp;Humidity;BMP_temperature;BMP_pressure;BME280_temperature;BME280_humidity;BME280_pressure;Samples;Min_cycle;Max_cycle;Signal;HPM_P1;HPM_P2
2023/07/24 00:01:57;;;;;;;;;;;17.50;99.90;;;;;;12508531;28;20455;-43
2023/07/24 00:07:59;;;;;;;;;;;17.50;99.90;;;;;;12510222;28;19965;-44
2023/07/24 00:14:01;;;;;;;;;;;17.50;99.90;;;;;;12526749;28;19920;-43
2023/07/24 00:20:03;;;;;;;;;;;17.60;99.90;;;;;;12516450;28;19921;-43
2023/07/24 00:26:05;;;;;;;;;;;17.60;99.90;;;;;;12528681;28;19925;-43
2023/07/24 00:32:08;;;;;;;;;;;17.60;99.90;;;;;;12493209;28;20381;-43
2023/07/24 00:38:11;;;;;;;;;;;17.60;99.90;;;;;;12509048;28;19921;-43
2023/07/24 00:44:13;;;;;;;;;;;17.70;99.90;;;;;;12485913;28;20126;-43
2023/07/24 00:50:16;;;;;;;;;;;17.60;99.90;;;;;;12495909;28;19921;-43
2023/07/24 00:56:18;;;;;;;;;;;17.70;99.90;;;;;;12487912;28;19928;-43
2023/07/24 01:02:21;;;;;;;;;;;17.70;99.90;;;;;;12496881;28;20657;-43
2023/07/24 01:08:23;;;;;;;;;;;17.70;99.90;;;;;;12502366;28;19978;-43
2023/07/24 01:14:44;;;;;;;;;;;17.70;99.90;;;;;;12507996;28;19925;-44
2023/07/24 01:20:51;;;;;;;;;;;17.60;99.90;;;;;;12510570;28;19928;-43
2023/07/24 01:26:54;;;;;;;;;;;17.60;99.90;;;;;;12506196;28;20015;-43
2023/07/24 01:32:56;;;;;;;;;;;17.60;99.90;;;;;;12546691;28;19931;-43
2023/07/24 01:39:00;;;;;;;;;;;17.60;99.90;;;;;;12529854;28;19924;-43
2023/07/24 01:45:03;;;;;;;;;;;17.60;99.90;;;;;;12494055;28;19921;-43
2023/07/24 01:51:06;;;;;;;;;;;17.60;99.90;;;;;;12529415;28;19925;-43
2023/07/24 01:57:10;;;;;;;;;;;17.50;99.90;;;;;;12517855;28;20019;-43
2023/07/24 02:03:13;;;;;;;;;;;17.50;99.90;;;;;;12516816;28;19928;-43
2023/07/24 02:09:18;;;;;;;;;;;17.50;99.90;;;;;;12521897;28;19948;-43
2023/07/24 02:15:20;;;;;;;;;;;17.50;99.90;;;;;;12516252;28;20305;-43
2023/07/24 02:21:23;;;;;;;;;;;17.50;99.90;;;;;;12532731;28;20285;-43
2023/07/24 02:27:27;;;;;;;;;;;17.40;99.90;;;;;;12499400;28;20715;-43
2023/07/24 02:33:30;;;;;;;;;;;17.40;99.90;;;;;;12499692;28;19921;-43
2023/07/24 02:39:33;;;;;;;;;;;17.40;99.90;;;;;;12503675;28;20219;-43
2023/07/24 02:45:39;;;;;;;;;;;17.30;99.90;;;;;;12483598;28;19931;-43
2023/07/24 02:51:41;;;;;;;;;;;17.30;99.90;;;;;;12502505;28;19975;-43
2023/07/24 02:57:44;;;;;;;;;;;17.30;99.90;;;;;;12498544;28;19979;-43
2023/07/24 03:03:46;;;;;;;;;;;17.30;99.90;;;;;;12508088;28;19924;-43
2023/07/24 03:09:50;;;;;;;;;;;17.30;99.90;;;;;;12495851;28;19951;-43
2023/07/24 03:15:57;;;;;;;;;;;17.30;99.90;;;;;;12484259;28;19972;-43
2023/07/24 03:22:00;;;;;;;;;;;17.30;99.90;;;;;;12507249;28;19921;-43
2023/07/24 03:28:02;;;;;;;;;;;17.20;99.90;;;;;;12515849;28;19924;-43
2023/07/24 03:34:05;;;;;;;;;;;17.20;99.90;;;;;;12510627;28;20295;-43
2023/07/24 03:40:07;;;;;;;;;;;17.20;99.90;;;;;;12481166;28;20414;-43
2023/07/24 03:46:10;;;;;;;;;;;17.10;99.90;;;;;;12484132;28;19925;-43
2023/07/24 03:52:13;;;;;;;;;;;17.10;99.90;;;;;;12496558;28;19932;-43
2023/07/24 03:58:15;;;;;;;;;;;17.10;99.90;;;;;;12499418;28;20373;-43
2023/07/24 04:04:17;;;;;;;;;;;17.20;99.90;;;;;;12510349;28;19921;-43
2023/07/24 04:10:19;;;;;;;;;;;17.70;99.90;;;;;;12530152;28;19927;-43
2023/07/24 04:16:22;;;;;;;;;;;17.90;99.90;;;;;;12516311;28;19950;-43
2023/07/24 04:22:25;;;;;;;;;;;17.80;99.90;;;;;;12498914;28;19952;-43
2023/07/24 04:28:28;;;;;;;;;;;18.10;99.90;;;;;;12474773;28;19925;-43
2023/07/24 04:34:32;;;;;;;;;;;18.40;99.90;;;;;;12487264;28;20012;-43
2023/07/24 04:40:35;;;;;;;;;;;18.70;99.90;;;;;;12484437;28;19968;-43
2023/07/24 04:46:37;;;;;;;;;;;19.40;99.90;;;;;;12500330;28;19921;-43
2023/07/24 04:52:40;;;;;;;;;;;18.80;99.90;;;;;;12524409;28;19920;-43
2023/07/24 04:58:43;;;;;;;;;;;18.30;99.90;;;;;;12509958;28;20277;-43
2023/07/24 05:04:45;;;;;;;;;;;18.10;99.90;;;;;;12503421;28;20472;-43
2023/07/24 05:10:47;;;;;;;;;;;17.90;99.90;;;;;;12402369;28;20748;-43
2023/07/24 05:16:49;;;;;;;;;;;17.80;99.90;;;;;;12515694;28;19934;-43
2023/07/24 05:22:52;;;;;;;;;;;17.70;99.90;;;;;;12487415;28;19928;-43
2023/07/24 05:28:54;;;;;;;;;;;17.70;99.90;;;;;;12510997;28;20369;-43
2023/07/24 05:34:57;;;;;;;;;;;17.60;99.90;;;;;;12493848;28;19925;-43
2023/07/24 05:41:00;;;;;;;;;;;17.50;99.90;;;;;;12503077;28;19928;-43
2023/07/24 05:47:03;;;;;;;;;;;17.40;99.90;;;;;;12525372;28;19921;-43
2023/07/24 05:53:08;;;;;;;;;;;17.20;99.90;;;;;;12477753;28;20014;-43
2023/07/24 05:59:10;;;;;;;;;;;17.10;99.90;;;;;;12499541;28;20313;-43
2023/07/24 06:05:13;;;;;;;;;;;17.00;99.90;;;;;;12502764;28;19925;-43
2023/07/24 06:11:17;;;;;;;;;;;17.00;99.90;;;;;;12518280;28;20665;-43
2023/07/24 06:17:20;;;;;;;;;;;16.90;99.90;;;;;;12506335;28;19921;-44
2023/07/24 06:23:22;;;;;;;;;;;16.90;99.90;;;;;;12506882;28;20369;-43
2023/07/24 06:29:25;;;;;;;;;;;16.80;99.90;;;;;;12498628;28;19928;-43
2023/07/24 06:35:29;;;;;;;;;;;16.90;99.90;;;;;;12496402;28;19933;-43
2023/07/24 06:41:31;;;;;;;;;;;16.80;99.90;;;;;;12488813;28;19924;-43
2023/07/24 06:47:33;;;;;;;;;;;16.80;99.90;;;;;;12503075;28;19927;-43
2023/07/24 06:53:36;;;;;;;;;;;16.90;99.90;;;;;;12472308;28;19925;-43
2023/07/24 06:59:38;;;;;;;;;;;16.90;99.90;;;;;;12518458;28;19970;-43
2023/07/24 07:05:40;;;;;;;;;;;16.90;99.90;;;;;;12511161;28;20308;-43
2023/07/24 07:11:43;;;;;;;;;;;16.90;99.90;;;;;;12494424;28;19921;-42
2023/07/24 07:17:45;;;;;;;;;;;17.00;99.90;;;;;;12507334;28;19954;-42
2023/07/24 07:23:48;;;;;;;;;;;17.00;99.90;;;;;;12495645;28;19925;-43
2023/07/24 07:29:51;;;;;;;;;;;17.20;99.90;;;;;;12499970;28;19921;-43
2023/07/24 07:35:53;;;;;;;;;;;17.30;99.90;;;;;;12505490;28;20457;-43
2023/07/24 07:41:59;;;;;;;;;;;17.50;99.90;;;;;;12506374;28;19924;-43
2023/07/24 07:48:17;;;;;;;;;;;17.60;99.90;;;;;;12504973;28;19975;-43
2023/07/24 07:54:20;;;;;;;;;;;17.80;99.90;;;;;;12508340;28;19966;-42
2023/07/24 08:00:22;;;;;;;;;;;17.90;99.90;;;;;;12507264;28;19921;-43
2023/07/24 08:06:24;;;;;;;;;;;17.90;99.90;;;;;;12504555;28;19928;-43
2023/07/24 08:12:27;;;;;;;;;;;18.10;99.90;;;;;;12510626;28;20388;-43
2023/07/24 08:18:30;;;;;;;;;;;18.10;99.90;;;;;;12508000;28;19948;-43
2023/07/24 08:24:36;;;;;;;;;;;18.10;99.90;;;;;;12505379;28;20381;-42
2023/07/24 08:30:38;;;;;;;;;;;18.20;99.90;;;;;;12474814;28;19932;-43
2023/07/24 08:36:40;;;;;;;;;;;18.30;99.90;;;;;;12492934;28;20616;-43
2023/07/24 08:42:43;;;;;;;;;;;18.80;99.90;;;;;;12483201;28;19925;-42
2023/07/24 08:48:46;;;;;;;;;;;19.00;99.90;;;;;;12481353;28;19947;-43
2023/07/24 08:54:49;;;;;;;;;;;18.90;99.90;;;;;;12516401;28;20308;-43
2023/07/24 09:00:51;;;;;;;;;;;19.00;99.90;;;;;;12486226;28;19921;-42
2023/07/24 09:06:56;;;;;;;;;;;18.80;99.90;;;;;;12487135;28;19921;-42
2023/07/24 09:13:05;;;;;;;;;;;18.90;99.90;;;;;;12488618;28;20209;-43
2023/07/24 09:19:16;;;;;;;;;;;19.10;99.90;;;;;;12489066;28;20345;-43
2023/07/24 09:25:31;;;;;;;;;;;19.10;99.90;;;;;;12491415;28;19985;-42
2023/07/24 09:31:34;;;;;;;;;;;19.00;99.90;;;;;;12508895;28;19928;-43
2023/07/24 09:37:36;;;;;;;;;;;19.00;99.90;;;;;;12517680;28;19994;-43
2023/07/24 09:43:39;;;;;;;;;;;19.30;99.90;;;;;;12505262;28;19921;-43
2023/07/24 09:49:42;;;;;;;;;;;19.30;99.90;;;;;;12519861;28;19970;-43
2023/07/24 09:55:53;;;;;;;;;;;19.40;99.90;;;;;;12500270;28;19921;-42
2023/07/24 10:01:58;;;;;;;;;;;19.50;99.90;;;;;;12493260;28;19929;-43
2023/07/24 10:08:01;;;;;;;;;;;19.50;99.90;;;;;;12508470;28;19921;-42
2023/07/24 10:14:03;;;;;;;;;;;19.60;99.90;;;;;;12513571;28;20054;-43
2023/07/24 10:20:07;;;;;;;;;;;19.60;99.90;;;;;;12510609;28;19921;-42
2023/07/24 10:26:10;;;;;;;;;;;19.50;99.90;;;;;;12461757;28;20569;-42
2023/07/24 10:32:18;;;;;;;;;;;19.70;99.90;;;;;;12492704;28;19921;-42
2023/07/24 10:38:33;;;;;;;;;;;19.90;99.90;;;;;;12503818;28;19929;-43
2023/07/24 10:44:40;;;;;;;;;;;20.30;99.90;;;;;;12516953;28;19920;-43
2023/07/24 10:50:46;;;;;;;;;;;20.00;99.90;;;;;;12513667;28;19932;-42
2023/07/24 10:57:00;;;;;;;;;;;20.20;99.90;;;;;;12503471;28;19927;-43
2023/07/24 11:03:03;;;;;;;;;;;20.60;99.90;;;;;;12513020;28;19925;-43
2023/07/24 11:09:06;;;;;;;;;;;19.90;99.90;;;;;;12519791;28;19920;-42
2023/07/24 11:15:08;;;;;;;;;;;19.70;99.90;;;;;;12510650;28;20125;-42
2023/07/24 11:21:12;;;;;;;;;;;19.30;99.90;;;;;;12510804;28;19986;-42
2023/07/24 11:27:19;;;;;;;;;;;19.50;99.90;;;;;;12520245;28;19921;-43
2023/07/24 11:33:22;;;;;;;;;;;19.60;99.90;;;;;;12510417;28;19944;-43
2023/07/24 11:39:24;;;;;;;;;;;19.70;99.90;;;;;;12497093;28;19928;-43
2023/07/24 11:45:27;;;;;;;;;;;19.60;99.90;;;;;;12504711;28;19932;-43
2023/07/24 11:51:32;;;;;;;;;;;19.50;99.90;;;;;;12511178;28;19962;-43
2023/07/24 11:57:34;;;;;;;;;;;19.40;99.90;;;;;;12491687;28;19943;-43
2023/07/24 12:03:39;;;;;;;;;;;19.50;99.90;;;;;;12499965;28;19921;-43
2023/07/24 12:09:53;;;;;;;;;;;19.40;99.90;;;;;;12501211;28;19960;-43
2023/07/24 12:15:55;;;;;;;;;;;19.40;99.90;;;;;;12506946;28;20270;-43
2023/07/24 12:21:57;;;;;;;;;;;19.10;99.90;;;;;;12512961;28;19928;-43
2023/07/24 12:28:00;;;;;;;;;;;19.30;99.90;;;;;;12509328;28;19955;-43
2023/07/24 12:34:03;;;;;;;;;;;19.40;99.90;;;;;;12529544;28;19920;-43
2023/07/24 12:40:05;;;;;;;;;;;19.90;99.90;;;;;;12512368;28;19920;-43
2023/07/24 12:46:08;;;;;;;;;;;19.60;99.90;;;;;;12480992;28;19921;-43
2023/07/24 12:52:11;;;;;;;;;;;19.40;99.90;;;;;;12527689;28;20617;-43
2023/07/24 12:58:13;;;;;;;;;;;19.40;99.90;;;;;;12526374;28;19921;-43
2023/07/24 13:04:15;;;;;;;;;;;19.30;99.90;;;;;;12510984;28;19983;-43
2023/07/24 13:10:18;;;;;;;;;;;19.00;99.90;;;;;;12518673;28;19921;-43
2023/07/24 13:16:20;;;;;;;;;;;18.70;99.90;;;;;;12514309;28;19921;-43
2023/07/24 13:22:22;;;;;;;;;;;18.50;99.90;;;;;;12516816;28;19920;-43
2023/07/24 13:28:24;;;;;;;;;;;18.20;99.90;;;;;;12524321;28;20030;-43
2023/07/24 13:34:27;;;;;;;;;;;18.10;99.90;;;;;;12523905;28;20341;-43
2023/07/24 13:40:32;;;;;;;;;;;18.00;99.90;;;;;;12526932;28;20363;-43
2023/07/24 13:46:36;;;;;;;;;;;18.10;99.90;;;;;;12495229;28;19928;-43
2023/07/24 13:52:41;;;;;;;;;;;18.20;99.90;;;;;;12495916;28;20016;-43
2023/07/24 13:58:43;;;;;;;;;;;18.50;99.90;;;;;;12500729;28;19927;-43
2023/07/24 14:04:45;;;;;;;;;;;18.50;99.90;;;;;;12509729;28;19921;-44
2023/07/24 14:10:47;;;;;;;;;;;18.70;99.90;;;;;;12510003;28;20443;-43
2023/07/24 14:16:50;;;;;;;;;;;18.40;99.90;;;;;;12517882;28;20369;-43
2023/07/24 14:22:52;;;;;;;;;;;18.50;99.90;;;;;;12523533;28;20462;-43
2023/07/24 14:28:55;;;;;;;;;;;18.20;99.90;;;;;;12529782;28;19920;-43
2023/07/24 14:34:58;;;;;;;;;;;18.40;99.90;;;;;;12513083;28;19925;-43
2023/07/24 14:41:00;;;;;;;;;;;18.50;99.90;;;;;;12500215;28;19921;-42
2023/07/24 14:47:03;;;;;;;;;;;19.10;99.90;;;;;;12501895;28;19925;-43
2023/07/24 14:53:05;;;;;;;;;;;19.30;99.90;;;;;;12503936;28;20442;-43
2023/07/24 14:59:08;;;;;;;;;;;19.60;99.90;;;;;;12505970;28;19928;-43
2023/07/24 15:05:11;;;;;;;;;;;19.80;99.90;;;;;;12524298;28;19952;-43
2023/07/24 15:11:13;;;;;;;;;;;19.90;99.90;;;;;;12516849;28;19924;-43
2023/07/24 15:17:18;;;;;;;;;;;19.90;99.90;;;;;;12518984;28;20305;-43
2023/07/24 15:23:20;;;;;;;;;;;20.20;99.90;;;;;;12509277;28;19921;-43
2023/07/24 15:29:23;;;;;;;;;;;20.30;99.90;;;;;;12511923;28;19964;-43
2023/07/24 15:35:25;;;;;;;;;;;20.50;99.90;;;;;;12501028;28;20309;-43
2023/07/24 15:41:31;;;;;;;;;;;20.70;99.90;;;;;;12504203;28;19921;-43
2023/07/24 15:47:36;;;;;;;;;;;20.70;99.90;;;;;;12504074;28;19978;-43
2023/07/24 15:53:42;;;;;;;;;;;20.80;99.90;;;;;;12518492;28;19932;-43
2023/07/24 15:59:45;;;;;;;;;;;19.90;99.90;;;;;;12504066;28;19972;-43
2023/07/24 16:05:47;;;;;;;;;;;19.60;99.90;;;;;;12523888;28;19928;-43
2023/07/24 16:11:50;;;;;;;;;;;19.50;99.90;;;;;;12509086;28;20357;-43
2023/07/24 16:17:53;;;;;;;;;;;19.50;99.90;;;;;;12501912;28;19946;-43
2023/07/24 16:23:59;;;;;;;;;;;19.60;99.90;;;;;;12504900;28;20390;-43
2023/07/24 16:30:01;;;;;;;;;;;19.40;99.90;;;;;;12518606;28;19928;-43
2023/07/24 16:36:05;;;;;;;;;;;19.30;99.90;;;;;;12508561;28;20474;-43
2023/07/24 16:42:09;;;;;;;;;;;19.30;99.90;;;;;;12529916;28;20012;-43
2023/07/24 16:48:13;;;;;;;;;;;19.00;99.90;;;;;;12514041;28;19974;-43
2023/07/24 16:54:16;;;;;;;;;;;18.70;99.90;;;;;;12503619;28;19921;-43
2023/07/24 17:00:19;;;;;;;;;;;18.80;99.90;;;;;;12498376;28;19925;-43
2023/07/24 17:06:22;;;;;;;;;;;19.10;99.90;;;;;;12519098;28;19974;-43
2023/07/24 17:12:25;;;;;;;;;;;19.10;99.90;;;;;;12515939;28;20548;-43
2023/07/24 17:18:28;;;;;;;;;;;19.10;99.90;;;;;;12526566;28;20034;-43
2023/07/24 17:24:30;;;;;;;;;;;18.90;99.90;;;;;;12510975;28;19925;-43
2023/07/24 17:30:33;;;;;;;;;;;18.90;99.90;;;;;;12520887;28;20118;-43
2023/07/24 17:36:36;;;;;;;;;;;18.80;99.90;;;;;;12506440;28;19921;-43
2023/07/24 17:42:39;;;;;;;;;;;18.50;99.90;;;;;;12501152;28;19928;-43
2023/07/24 17:48:44;;;;;;;;;;;18.40;99.90;;;;;;12522682;28;20013;-43
2023/07/24 17:54:47;;;;;;;;;;;18.30;99.90;;;;;;12510094;28;19947;-43
2023/07/24 18:00:49;;;;;;;;;;;18.30;99.90;;;;;;12519912;28;19990;-43
2023/07/24 18:06:51;;;;;;;;;;;18.00;99.90;;;;;;12510509;28;19920;-43
2023/07/24 18:12:54;;;;;;;;;;;17.50;99.90;;;;;;12515642;28;19978;-42
2023/07/24 18:18:56;;;;;;;;;;;17.20;99.90;;;;;;12512681;28;19928;-43
2023/07/24 18:24:58;;;;;;;;;;;17.10;99.90;;;;;;12515165;28;19928;-43
2023/07/24 18:31:00;;;;;;;;;;;16.90;99.90;;;;;;12517196;28;19924;-42
2023/07/24 18:37:03;;;;;;;;;;;16.70;99.90;;;;;;12501803;28;20281;-43
2023/07/24 18:43:06;;;;;;;;;;;16.60;99.90;;;;;;12501476;28;19925;-42
2023/07/24 18:49:08;;;;;;;;;;;16.70;99.90;;;;;;12488566;28;19928;-43
2023/07/24 18:55:10;;;;;;;;;;;16.70;99.90;;;;;;12503936;28;19929;-42
2023/07/24 19:01:13;;;;;;;;;;;16.80;99.90;;;;;;12511880;28;19931;-42
2023/07/24 19:07:15;;;;;;;;;;;16.90;99.90;;;;;;12501478;28;20353;-43
2023/07/24 19:13:18;;;;;;;;;;;16.70;99.90;;;;;;12500515;28;19960;-43
2023/07/24 19:19:20;;;;;;;;;;;16.80;99.90;;;;;;12517718;28;19946;-43
2023/07/24 19:25:22;;;;;;;;;;;16.80;99.90;;;;;;12499068;28;19921;-43
2023/07/24 19:31:24;;;;;;;;;;;16.70;99.90;;;;;;12519218;28;19921;-43
2023/07/24 19:37:27;;;;;;;;;;;16.80;99.90;;;;;;12504278;28;20417;-43
2023/07/24 19:43:30;;;;;;;;;;;16.80;99.90;;;;;;12508600;28;19925;-43
2023/07/24 19:49:34;;;;;;;;;;;16.70;99.90;;;;;;12500799;28;20395;-43
2023/07/24 19:55:37;;;;;;;;;;;16.70;99.90;;;;;;12499171;28;20164;-43
2023/07/24 20:01:39;;;;;;;;;;;16.90;99.90;;;;;;12499288;28;20011;-43
2023/07/24 20:07:41;;;;;;;;;;;16.50;99.90;;;;;;12510676;28;19932;-43
2023/07/24 20:13:45;;;;;;;;;;;16.30;99.90;;;;;;12503489;28;19925;-42
2023/07/24 20:19:47;;;;;;;;;;;16.30;99.90;;;;;;12510328;28;20361;-42
2023/07/24 20:25:50;;;;;;;;;;;16.30;99.90;;;;;;12499460;28;19943;-42
2023/07/24 20:31:53;;;;;;;;;;;16.40;99.90;;;;;;12491871;28;19921;-43
2023/07/24 20:38:03;;;;;;;;;;;16.20;99.90;;;;;;12500122;28;20337;-42
2023/07/24 20:44:06;;;;;;;;;;;16.10;99.90;;;;;;12516522;28;20426;-42
2023/07/24 20:50:08;;;;;;;;;;;16.00;99.90;;;;;;12520458;28;20400;-42
2023/07/24 20:56:10;;;;;;;;;;;16.00;99.90;;;;;;12505691;28;19925;-42
2023/07/24 21:02:13;;;;;;;;;;;16.00;99.90;;;;;;12499556;28;20060;-42
2023/07/24 21:08:16;;;;;;;;;;;15.90;99.90;;;;;;12511979;28;19948;-42
2023/07/24 21:14:19;;;;;;;;;;;16.00;99.90;;;;;;12503488;28;19920;-42
2023/07/24 21:20:22;;;;;;;;;;;16.00;99.90;;;;;;12517942;28;20760;-42
2023/07/24 21:26:25;;;;;;;;;;;15.80;99.90;;;;;;12515235;28;19925;-42
2023/07/24 21:32:30;;;;;;;;;;;15.80;99.90;;;;;;12493136;28;20026;-42
2023/07/24 21:38:32;;;;;;;;;;;15.90;99.90;;;;;;12525964;28;20011;-42
2023/07/24 21:44:35;;;;;;;;;;;15.70;99.90;;;;;;12522591;28;19920;-42
2023/07/24 21:50:37;;;;;;;;;;;15.50;99.90;;;;;;12502634;28;20305;-42
2023/07/24 21:56:40;;;;;;;;;;;15.50;99.90;;;;;;12525750;28;19924;-42
2023/07/24 22:02:42;;;;;;;;;;;15.30;99.90;;;;;;12499200;28;20288;-42
2023/07/24 22:08:45;;;;;;;;;;;15.40;99.90;;;;;;12518972;28;19928;-42
2023/07/24 22:14:47;;;;;;;;;;;15.30;99.90;;;;;;12513667;28;19921;-42
2023/07/24 22:20:49;;;;;;;;;;;15.40;99.90;;;;;;12518834;28;19940;-42
2023/07/24 22:26:52;;;;;;;;;;;15.20;99.90;;;;;;12514293;28;19998;-42
2023/07/24 22:32:54;;;;;;;;;;;15.30;99.90;;;;;;12502913;28;20362;-42
2023/07/24 22:39:01;;;;;;;;;;;15.10;99.90;;;;;;12511797;28;19979;-41
2023/07/24 22:45:04;;;;;;;;;;;15.00;99.90;;;;;;12520409;28;19920;-42
2023/07/24 22:51:06;;;;;;;;;;;14.90;99.90;;;;;;12510895;28;19921;-43
2023/07/24 22:57:09;;;;;;;;;;;15.10;99.90;;;;;;12520137;28;19970;-43
2023/07/24 23:03:11;;;;;;;;;;;15.10;99.90;;;;;;12520056;28;20499;-42
2023/07/24 23:09:14;;;;;;;;;;;15.10;99.90;;;;;;12522687;28;19921;-43
2023/07/24 23:15:16;;;;;;;;;;;15.10;99.90;;;;;;12517934;28;20366;-42
2023/07/24 23:21:19;;;;;;;;;;;14.90;99.90;;;;;;12512387;28;20289;-43
2023/07/24 23:27:22;;;;;;;;;;;14.80;99.90;;;;;;12497410;28;19921;-43
2023/07/24 23:33:24;;;;;;;;;;;14.80;99.90;;;;;;12506578;28;20305;-42
2023/07/24 23:39:26;;;;;;;;;;;14.70;99.90;;;;;;12494216;28;19921;-43
2023/07/24 23:45:32;;;;;;;;;;;14.80;99.90;;;;;;12502298;28;19921;-42
2023/07/24 23:51:34;;;;;;;;;;;14.90;99.90;;;;;;12510477;28;19971;-43
2023/07/24 23:57:36;;;;;;;;;;;14.70;99.90;;;;;;12509608;28;19960;-42
